Fort Wingate, New Mexico
Current Conditions -  °F | °C
As of 2:53 PM on Monday 24 Nov 2014 (Local Time) from KGUP Reporting Station
Few Clouds Few Clouds  
Wind Chill: -2°   Ceiling: Unl
Heat Index:   Visibility: 10mi
Dew Point: -17°   Wind: 24mph
Humidity: 20%   Direction: 340°NNW
Pressure: 30.17"   Gusts: 32mph
Location:  35.47°N, 108.55°W
Report Text: KGUP 242153Z AUTO 34021G28KT 10SM FEW080 04/M17 A3017 RMK AO2 PK WND 35029/2127 SLP266 T00391172
Loading
Personal Weather Stations






























Interactive Weather Map New forecast layout! Learn more

10-Day Weather Forecast

Advertisements
Track Severe Weather on mobile